sensor_id;sensor_type;location;lat;lon;timestamp;P1;durP1;ratioP1;P2;durP2;ratioP2
78224;SDS011;67498;53.650;10.090;2024-02-15T00:01:20;16.47;;;5.10;;
78224;SDS011;67498;53.650;10.090;2024-02-15T00:03:46;17.20;;;4.67;;
78224;SDS011;67498;53.650;10.090;2024-02-15T00:06:11;17.07;;;4.93;;
78224;SDS011;67498;53.650;10.090;2024-02-15T00:08:37;14.18;;;4.47;;
78224;SDS011;67498;53.650;10.090;2024-02-15T00:11:02;17.17;;;4.73;;
78224;SDS011;67498;53.650;10.090;2024-02-15T00:13:27;11.77;;;3.97;;
78224;SDS011;67498;53.650;10.090;2024-02-15T00:15:53;22.43;;;4.97;;
78224;SDS011;67498;53.650;10.090;2024-02-15T00:18:18;15.93;;;4.50;;
78224;SDS011;67498;53.650;10.090;2024-02-15T00:20:43;14.90;;;4.90;;
78224;SDS011;67498;53.650;10.090;2024-02-15T00:23:09;14.17;;;3.67;;
78224;SDS011;67498;53.650;10.090;2024-02-15T00:25:34;13.67;;;4.00;;
78224;SDS011;67498;53.650;10.090;2024-02-15T00:28:00;11.65;;;4.22;;
78224;SDS011;67498;53.650;10.090;2024-02-15T00:30:26;13.33;;;4.27;;
78224;SDS011;67498;53.650;10.090;2024-02-15T00:32:52;16.55;;;4.30;;
78224;SDS011;67498;53.650;10.090;2024-02-15T00:35:18;13.30;;;4.03;;
78224;SDS011;67498;53.650;10.090;2024-02-15T00:37:43;13.30;;;3.67;;
78224;SDS011;67498;53.650;10.090;2024-02-15T00:40:10;14.33;;;3.97;;
78224;SDS011;67498;53.650;10.090;2024-02-15T00:42:35;15.95;;;4.50;;
78224;SDS011;67498;53.650;10.090;2024-02-15T00:45:01;16.63;;;4.40;;
78224;SDS011;67498;53.650;10.090;2024-02-15T00:47:27;12.40;;;4.35;;
78224;SDS011;67498;53.650;10.090;2024-02-15T00:49:53;20.30;;;5.15;;
78224;SDS011;67498;53.650;10.090;2024-02-15T00:52:18;15.43;;;4.87;;
78224;SDS011;67498;53.650;10.090;2024-02-15T00:54:44;26.40;;;5.77;;
78224;SDS011;67498;53.650;10.090;2024-02-15T00:57:09;15.05;;;4.63;;
78224;SDS011;67498;53.650;10.090;2024-02-15T00:59:35;17.60;;;5.17;;
78224;SDS011;67498;53.650;10.090;2024-02-15T01:02:01;16.90;;;4.73;;
78224;SDS011;67498;53.650;10.090;2024-02-15T01:04:27;18.65;;;5.80;;
78224;SDS011;67498;53.650;10.090;2024-02-15T01:06:52;19.97;;;5.57;;
78224;SDS011;67498;53.650;10.090;2024-02-15T01:09:18;17.73;;;5.60;;
78224;SDS011;67498;53.650;10.090;2024-02-15T01:11:43;16.52;;;5.65;;
78224;SDS011;67498;53.650;10.090;2024-02-15T01:14:08;18.37;;;5.73;;
78224;SDS011;67498;53.650;10.090;2024-02-15T01:16:34;18.53;;;6.07;;
78224;SDS011;67498;53.650;10.090;2024-02-15T01:19:01;21.13;;;5.67;;
78224;SDS011;67498;53.650;10.090;2024-02-15T01:21:26;21.13;;;6.25;;
78224;SDS011;67498;53.650;10.090;2024-02-15T01:23:51;21.40;;;6.07;;
78224;SDS011;67498;53.650;10.090;2024-02-15T01:26:18;18.38;;;5.93;;
78224;SDS011;67498;53.650;10.090;2024-02-15T01:28:45;20.10;;;7.10;;
78224;SDS011;67498;53.650;10.090;2024-02-15T01:31:10;20.08;;;5.90;;
78224;SDS011;67498;53.650;10.090;2024-02-15T01:33:36;20.17;;;6.40;;
78224;SDS011;67498;53.650;10.090;2024-02-15T01:36:02;19.50;;;6.30;;
78224;SDS011;67498;53.650;10.090;2024-02-15T01:38:31;16.02;;;5.00;;
78224;SDS011;67498;53.650;10.090;2024-02-15T01:40:56;22.13;;;6.33;;
78224;SDS011;67498;53.650;10.090;2024-02-15T01:43:21;19.40;;;6.33;;
78224;SDS011;67498;53.650;10.090;2024-02-15T01:45:49;25.10;;;7.22;;
78224;SDS011;67498;53.650;10.090;2024-02-15T01:48:14;26.77;;;7.50;;
78224;SDS011;67498;53.650;10.090;2024-02-15T01:50:40;20.83;;;6.57;;
78224;SDS011;67498;53.650;10.090;2024-02-15T01:53:07;17.73;;;5.50;;
78224;SDS011;67498;53.650;10.090;2024-02-15T01:55:33;17.70;;;6.13;;
78224;SDS011;67498;53.650;10.090;2024-02-15T01:57:59;18.70;;;7.00;;
78224;SDS011;67498;53.650;10.090;2024-02-15T02:00:25;19.55;;;6.15;;
78224;SDS011;67498;53.650;10.090;2024-02-15T02:02:51;21.03;;;6.80;;
78224;SDS011;67498;53.650;10.090;2024-02-15T02:05:18;20.08;;;7.18;;
78224;SDS011;67498;53.650;10.090;2024-02-15T02:07:44;21.63;;;6.80;;
78224;SDS011;67498;53.650;10.090;2024-02-15T02:10:09;17.40;;;6.50;;
78224;SDS011;67498;53.650;10.090;2024-02-15T02:12:39;19.63;;;7.33;;
78224;SDS011;67498;53.650;10.090;2024-02-15T02:15:06;20.40;;;6.68;;
78224;SDS011;67498;53.650;10.090;2024-02-15T02:17:32;21.33;;;7.00;;
78224;SDS011;67498;53.650;10.090;2024-02-15T02:19:58;23.05;;;6.72;;
78224;SDS011;67498;53.650;10.090;2024-02-15T02:22:23;20.83;;;5.80;;
78224;SDS011;67498;53.650;10.090;2024-02-15T02:25:05;23.53;;;7.17;;
78224;SDS011;67498;53.650;10.090;2024-02-15T02:27:34;27.35;;;6.90;;
78224;SDS011;67498;53.650;10.090;2024-02-15T02:30:02;19.73;;;5.63;;
78224;SDS011;67498;53.650;10.090;2024-02-15T02:32:32;24.42;;;6.93;;
78224;SDS011;67498;53.650;10.090;2024-02-15T02:34:58;21.10;;;5.72;;
78224;SDS011;67498;53.650;10.090;2024-02-15T02:37:24;20.90;;;6.83;;
78224;SDS011;67498;53.650;10.090;2024-02-15T02:39:50;20.35;;;6.70;;
78224;SDS011;67498;53.650;10.090;2024-02-15T02:42:15;27.00;;;6.50;;
78224;SDS011;67498;53.650;10.090;2024-02-15T02:44:40;20.63;;;6.40;;
78224;SDS011;67498;53.650;10.090;2024-02-15T02:47:06;24.80;;;6.87;;
78224;SDS011;67498;53.650;10.090;2024-02-15T02:49:31;19.73;;;6.37;;
78224;SDS011;67498;53.650;10.090;2024-02-15T02:51:56;21.17;;;6.43;;
78224;SDS011;67498;53.650;10.090;2024-02-15T02:54:21;22.87;;;5.90;;
78224;SDS011;67498;53.650;10.090;2024-02-15T02:56:47;20.70;;;5.80;;
78224;SDS011;67498;53.650;10.090;2024-02-15T02:59:12;20.43;;;5.83;;
78224;SDS011;67498;53.650;10.090;2024-02-15T03:01:37;23.43;;;5.80;;
78224;SDS011;67498;53.650;10.090;2024-02-15T03:04:04;21.58;;;5.93;;
78224;SDS011;67498;53.650;10.090;2024-02-15T03:06:30;19.43;;;6.37;;
78224;SDS011;67498;53.650;10.090;2024-02-15T03:08:55;18.43;;;5.90;;
78224;SDS011;67498;53.650;10.090;2024-02-15T03:11:20;20.73;;;5.97;;
78224;SDS011;67498;53.650;10.090;2024-02-15T03:13:46;16.60;;;5.40;;
78224;SDS011;67498;53.650;10.090;2024-02-15T03:16:13;14.43;;;5.18;;
78224;SDS011;67498;53.650;10.090;2024-02-15T03:18:38;17.80;;;4.93;;
78224;SDS011;67498;53.650;10.090;2024-02-15T03:21:03;16.17;;;5.53;;
78224;SDS011;67498;53.650;10.090;2024-02-15T03:23:29;19.33;;;5.33;;
78224;SDS011;67498;53.650;10.090;2024-02-15T03:25:54;18.47;;;5.70;;
78224;SDS011;67498;53.650;10.090;2024-02-15T03:28:20;19.80;;;5.77;;
78224;SDS011;67498;53.650;10.090;2024-02-15T03:30:46;17.95;;;6.07;;
78224;SDS011;67498;53.650;10.090;2024-02-15T03:33:11;17.20;;;5.97;;
78224;SDS011;67498;53.650;10.090;2024-02-15T03:35:38;24.25;;;6.18;;
78224;SDS011;67498;53.650;10.090;2024-02-15T03:38:03;26.97;;;5.23;;
78224;SDS011;67498;53.650;10.090;2024-02-15T03:40:28;23.80;;;5.87;;
78224;SDS011;67498;53.650;10.090;2024-02-15T03:42:55;22.83;;;5.53;;
78224;SDS011;67498;53.650;10.090;2024-02-15T03:45:21;16.45;;;5.00;;
78224;SDS011;67498;53.650;10.090;2024-02-15T03:47:49;17.77;;;5.45;;
78224;SDS011;67498;53.650;10.090;2024-02-15T03:50:15;17.67;;;5.93;;
78224;SDS011;67498;53.650;10.090;2024-02-15T03:52:40;20.60;;;6.03;;
78224;SDS011;67498;53.650;10.090;2024-02-15T03:55:06;21.37;;;6.33;;
78224;SDS011;67498;53.650;10.090;2024-02-15T03:57:32;18.17;;;5.68;;
78224;SDS011;67498;53.650;10.090;2024-02-15T03:59:59;20.80;;;5.85;;
78224;SDS011;67498;53.650;10.090;2024-02-15T04:02:24;17.83;;;5.23;;
78224;SDS011;67498;53.650;10.090;2024-02-15T04:04:55;17.47;;;5.20;;
78224;SDS011;67498;53.650;10.090;2024-02-15T04:07:21;16.75;;;5.07;;
78224;SDS011;67498;53.650;10.090;2024-02-15T04:09:50;23.67;;;5.40;;
78224;SDS011;67498;53.650;10.090;2024-02-15T04:12:16;19.63;;;5.20;;
78224;SDS011;67498;53.650;10.090;2024-02-15T04:14:41;23.60;;;5.63;;
78224;SDS011;67498;53.650;10.090;2024-02-15T04:17:10;20.60;;;6.20;;
78224;SDS011;67498;53.650;10.090;2024-02-15T04:19:35;14.27;;;4.87;;
78224;SDS011;67498;53.650;10.090;2024-02-15T04:22:02;21.73;;;6.45;;
78224;SDS011;67498;53.650;10.090;2024-02-15T04:24:33;34.20;;;11.80;;
78224;SDS011;67498;53.650;10.090;2024-02-15T04:26:59;34.53;;;11.93;;
78224;SDS011;67498;53.650;10.090;2024-02-15T04:29:24;27.30;;;6.73;;
78224;SDS011;67498;53.650;10.090;2024-02-15T04:31:50;19.23;;;5.77;;
78224;SDS011;67498;53.650;10.090;2024-02-15T04:34:15;22.87;;;5.77;;
78224;SDS011;67498;53.650;10.090;2024-02-15T04:36:43;22.13;;;6.28;;
78224;SDS011;67498;53.650;10.090;2024-02-15T04:39:14;23.70;;;6.07;;
78224;SDS011;67498;53.650;10.090;2024-02-15T04:41:48;18.23;;;5.57;;
78224;SDS011;67498;53.650;10.090;2024-02-15T04:44:14;21.77;;;5.20;;
78224;SDS011;67498;53.650;10.090;2024-02-15T04:46:41;24.90;;;6.47;;
78224;SDS011;67498;53.650;10.090;2024-02-15T04:49:08;15.85;;;5.55;;
78224;SDS011;67498;53.650;10.090;2024-02-15T04:51:33;20.90;;;5.17;;
78224;SDS011;67498;53.650;10.090;2024-02-15T04:53:58;18.70;;;5.83;;
78224;SDS011;67498;53.650;10.090;2024-02-15T04:56:26;62.63;;;20.10;;
78224;SDS011;67498;53.650;10.090;2024-02-15T04:58:52;36.43;;;11.47;;
78224;SDS011;67498;53.650;10.090;2024-02-15T05:01:17;22.90;;;6.70;;
78224;SDS011;67498;53.650;10.090;2024-02-15T05:03:45;16.97;;;5.63;;
78224;SDS011;67498;53.650;10.090;2024-02-15T05:06:12;21.20;;;6.10;;
78224;SDS011;67498;53.650;10.090;2024-02-15T05:08:38;26.67;;;6.93;;
78224;SDS011;67498;53.650;10.090;2024-02-15T05:11:11;19.13;;;6.10;;
78224;SDS011;67498;53.650;10.090;2024-02-15T05:13:42;19.47;;;5.37;;
78224;SDS011;67498;53.650;10.090;2024-02-15T05:16:11;22.60;;;6.80;;
78224;SDS011;67498;53.650;10.090;2024-02-15T05:18:36;37.05;;;6.82;;
78224;SDS011;67498;53.650;10.090;2024-02-15T05:21:02;24.02;;;5.80;;
78224;SDS011;67498;53.650;10.090;2024-02-15T05:23:29;27.57;;;5.70;;
78224;SDS011;67498;53.650;10.090;2024-02-15T05:25:55;25.90;;;5.60;;
78224;SDS011;67498;53.650;10.090;2024-02-15T05:28:21;20.20;;;6.07;;
78224;SDS011;67498;53.650;10.090;2024-02-15T05:31:07;24.97;;;6.17;;
78224;SDS011;67498;53.650;10.090;2024-02-15T05:33:45;20.33;;;5.18;;
78224;SDS011;67498;53.650;10.090;2024-02-15T05:36:16;21.70;;;6.80;;
78224;SDS011;67498;53.650;10.090;2024-02-15T05:38:45;22.27;;;7.20;;
78224;SDS011;67498;53.650;10.090;2024-02-15T05:41:15;27.08;;;6.57;;
78224;SDS011;67498;53.650;10.090;2024-02-15T05:43:41;28.70;;;6.73;;
78224;SDS011;67498;53.650;10.090;2024-02-15T05:46:07;21.20;;;6.22;;
78224;SDS011;67498;53.650;10.090;2024-02-15T05:48:33;26.52;;;5.63;;
78224;SDS011;67498;53.650;10.090;2024-02-15T05:51:00;26.37;;;6.67;;
78224;SDS011;67498;53.650;10.090;2024-02-15T05:53:29;25.02;;;6.05;;
78224;SDS011;67498;53.650;10.090;2024-02-15T05:55:55;28.38;;;6.55;;
78224;SDS011;67498;53.650;10.090;2024-02-15T05:58:23;20.38;;;5.45;;
78224;SDS011;67498;53.650;10.090;2024-02-15T06:00:48;22.70;;;6.30;;
78224;SDS011;67498;53.650;10.090;2024-02-15T06:03:15;20.87;;;6.57;;
78224;SDS011;67498;53.650;10.090;2024-02-15T06:05:41;26.02;;;6.80;;
78224;SDS011;67498;53.650;10.090;2024-02-15T06:08:06;21.10;;;5.93;;
78224;SDS011;67498;53.650;10.090;2024-02-15T06:10:32;22.20;;;6.33;;
78224;SDS011;67498;53.650;10.090;2024-02-15T06:12:57;28.40;;;7.23;;
78224;SDS011;67498;53.650;10.090;2024-02-15T06:15:25;29.52;;;7.20;;
78224;SDS011;67498;53.650;10.090;2024-02-15T06:17:51;23.30;;;6.43;;
78224;SDS011;67498;53.650;10.090;2024-02-15T06:20:17;27.65;;;6.47;;
78224;SDS011;67498;53.650;10.090;2024-02-15T06:22:46;24.67;;;6.17;;
78224;SDS011;67498;53.650;10.090;2024-02-15T06:25:12;24.52;;;6.07;;
78224;SDS011;67498;53.650;10.090;2024-02-15T06:27:45;20.70;;;5.50;;
78224;SDS011;67498;53.650;10.090;2024-02-15T06:30:12;21.83;;;5.80;;
78224;SDS011;67498;53.650;10.090;2024-02-15T06:32:57;29.33;;;6.50;;
78224;SDS011;67498;53.650;10.090;2024-02-15T06:35:41;23.47;;;5.73;;
78224;SDS011;67498;53.650;10.090;2024-02-15T06:38:25;27.17;;;7.57;;
78224;SDS011;67498;53.650;10.090;2024-02-15T06:41:09;28.83;;;6.75;;
78224;SDS011;67498;53.650;10.090;2024-02-15T06:43:37;30.50;;;6.63;;
78224;SDS011;67498;53.650;10.090;2024-02-15T06:46:02;27.08;;;6.75;;
78224;SDS011;67498;53.650;10.090;2024-02-15T06:48:31;26.83;;;7.13;;
78224;SDS011;67498;53.650;10.090;2024-02-15T06:50:56;23.80;;;6.47;;
78224;SDS011;67498;53.650;10.090;2024-02-15T06:53:22;25.10;;;7.37;;
78224;SDS011;67498;53.650;10.090;2024-02-15T06:55:47;26.50;;;6.83;;
78224;SDS011;67498;53.650;10.090;2024-02-15T06:58:14;27.98;;;7.15;;
78224;SDS011;67498;53.650;10.090;2024-02-15T07:00:43;32.42;;;7.78;;
78224;SDS011;67498;53.650;10.090;2024-02-15T07:03:09;32.25;;;7.95;;
78224;SDS011;67498;53.650;10.090;2024-02-15T07:05:35;33.77;;;7.10;;
78224;SDS011;67498;53.650;10.090;2024-02-15T07:08:03;31.00;;;7.32;;
78224;SDS011;67498;53.650;10.090;2024-02-15T07:10:30;32.97;;;7.45;;
78224;SDS011;67498;53.650;10.090;2024-02-15T07:12:56;26.27;;;7.82;;
78224;SDS011;67498;53.650;10.090;2024-02-15T07:15:21;39.70;;;8.53;;
78224;SDS011;67498;53.650;10.090;2024-02-15T07:17:47;31.73;;;7.47;;
78224;SDS011;67498;53.650;10.090;2024-02-15T07:20:13;33.60;;;7.18;;
78224;SDS011;67498;53.650;10.090;2024-02-15T07:22:42;31.08;;;8.80;;
78224;SDS011;67498;53.650;10.090;2024-02-15T07:25:08;32.80;;;8.53;;
78224;SDS011;67498;53.650;10.090;2024-02-15T07:27:35;39.65;;;8.13;;
78224;SDS011;67498;53.650;10.090;2024-02-15T07:30:00;24.80;;;6.33;;
78224;SDS011;67498;53.650;10.090;2024-02-15T07:32:25;39.67;;;7.73;;
78224;SDS011;67498;53.650;10.090;2024-02-15T07:34:51;40.20;;;7.00;;
78224;SDS011;67498;53.650;10.090;2024-02-15T07:37:17;35.73;;;8.07;;
78224;SDS011;67498;53.650;10.090;2024-02-15T07:39:42;30.50;;;6.87;;
78224;SDS011;67498;53.650;10.090;2024-02-15T07:42:07;31.17;;;6.77;;
78224;SDS011;67498;53.650;10.090;2024-02-15T07:44:37;33.00;;;7.20;;
78224;SDS011;67498;53.650;10.090;2024-02-15T07:47:03;28.30;;;5.50;;
78224;SDS011;67498;53.650;10.090;2024-02-15T07:49:29;25.10;;;5.85;;
78224;SDS011;67498;53.650;10.090;2024-02-15T07:51:56;31.90;;;6.22;;
78224;SDS011;67498;53.650;10.090;2024-02-15T07:54:22;28.33;;;6.30;;
78224;SDS011;67498;53.650;10.090;2024-02-15T07:56:49;28.88;;;5.97;;
78224;SDS011;67498;53.650;10.090;2024-02-15T07:59:15;21.27;;;5.93;;
78224;SDS011;67498;53.650;10.090;2024-02-15T08:01:43;23.00;;;6.00;;
78224;SDS011;67498;53.650;10.090;2024-02-15T08:04:12;25.15;;;6.55;;
78224;SDS011;67498;53.650;10.090;2024-02-15T08:06:37;27.65;;;5.82;;
78224;SDS011;67498;53.650;10.090;2024-02-15T08:09:03;21.63;;;5.47;;
78224;SDS011;67498;53.650;10.090;2024-02-15T08:11:31;22.85;;;5.88;;
78224;SDS011;67498;53.650;10.090;2024-02-15T08:13:57;25.10;;;6.10;;
78224;SDS011;67498;53.650;10.090;2024-02-15T08:16:24;26.83;;;5.65;;
78224;SDS011;67498;53.650;10.090;2024-02-15T08:18:53;21.57;;;5.70;;
78224;SDS011;67498;53.650;10.090;2024-02-15T08:21:29;18.52;;;5.28;;
78224;SDS011;67498;53.650;10.090;2024-02-15T08:23:57;20.35;;;5.57;;
78224;SDS011;67498;53.650;10.090;2024-02-15T08:26:23;16.98;;;4.57;;
78224;SDS011;67498;53.650;10.090;2024-02-15T08:28:49;24.70;;;5.67;;
78224;SDS011;67498;53.650;10.090;2024-02-15T08:31:14;29.60;;;6.13;;
78224;SDS011;67498;53.650;10.090;2024-02-15T08:33:40;29.13;;;5.32;;
78224;SDS011;67498;53.650;10.090;2024-02-15T08:36:08;23.08;;;5.78;;
78224;SDS011;67498;53.650;10.090;2024-02-15T08:38:35;17.13;;;5.97;;
78224;SDS011;67498;53.650;10.090;2024-02-15T08:41:02;22.90;;;5.60;;
78224;SDS011;67498;53.650;10.090;2024-02-15T08:43:28;22.02;;;5.55;;
78224;SDS011;67498;53.650;10.090;2024-02-15T08:45:53;24.10;;;6.93;;
78224;SDS011;67498;53.650;10.090;2024-02-15T08:48:19;28.43;;;6.47;;
78224;SDS011;67498;53.650;10.090;2024-02-15T08:50:44;14.27;;;4.60;;
78224;SDS011;67498;53.650;10.090;2024-02-15T08:53:10;23.98;;;6.15;;
78224;SDS011;67498;53.650;10.090;2024-02-15T08:55:35;29.97;;;7.00;;
78224;SDS011;67498;53.650;10.090;2024-02-15T08:58:01;20.50;;;5.83;;
78224;SDS011;67498;53.650;10.090;2024-02-15T09:00:27;25.87;;;5.77;;
78224;SDS011;67498;53.650;10.090;2024-02-15T09:02:53;23.80;;;5.63;;
78224;SDS011;67498;53.650;10.090;2024-02-15T09:05:18;19.73;;;5.13;;
78224;SDS011;67498;53.650;10.090;2024-02-15T09:07:44;21.23;;;5.50;;
78224;SDS011;67498;53.650;10.090;2024-02-15T09:10:15;27.08;;;5.85;;
78224;SDS011;67498;53.650;10.090;2024-02-15T09:12:44;20.90;;;5.47;;
78224;SDS011;67498;53.650;10.090;2024-02-15T09:15:12;20.88;;;5.22;;
78224;SDS011;67498;53.650;10.090;2024-02-15T09:17:39;21.20;;;5.20;;
78224;SDS011;67498;53.650;10.090;2024-02-15T09:20:07;17.33;;;4.97;;
78224;SDS011;67498;53.650;10.090;2024-02-15T09:22:34;21.35;;;4.68;;
78224;SDS011;67498;53.650;10.090;2024-02-15T09:25:01;14.77;;;4.73;;
78224;SDS011;67498;53.650;10.090;2024-02-15T09:27:27;18.23;;;4.88;;
78224;SDS011;67498;53.650;10.090;2024-02-15T09:29:52;18.67;;;4.27;;
78224;SDS011;67498;53.650;10.090;2024-02-15T09:32:18;17.23;;;4.17;;
78224;SDS011;67498;53.650;10.090;2024-02-15T09:34:43;17.07;;;3.80;;
78224;SDS011;67498;53.650;10.090;2024-02-15T09:37:08;17.33;;;4.47;;
78224;SDS011;67498;53.650;10.090;2024-02-15T09:39:34;18.17;;;4.88;;
78224;SDS011;67498;53.650;10.090;2024-02-15T09:42:01;18.13;;;4.43;;
78224;SDS011;67498;53.650;10.090;2024-02-15T09:44:26;20.50;;;4.95;;
78224;SDS011;67498;53.650;10.090;2024-02-15T09:49:33;20.35;;;5.53;;
78224;SDS011;67498;53.650;10.090;2024-02-15T09:52:04;15.68;;;5.38;;
78224;SDS011;67498;53.650;10.090;2024-02-15T09:54:32;17.60;;;5.35;;
78224;SDS011;67498;53.650;10.090;2024-02-15T09:56:59;17.33;;;5.38;;
78224;SDS011;67498;53.650;10.090;2024-02-15T09:59:26;13.77;;;4.30;;
78224;SDS011;67498;53.650;10.090;2024-02-15T10:01:51;17.07;;;4.43;;
78224;SDS011;67498;53.650;10.090;2024-02-15T10:04:23;20.58;;;4.93;;
78224;SDS011;67498;53.650;10.090;2024-02-15T10:06:50;15.20;;;4.32;;
78224;SDS011;67498;53.650;10.090;2024-02-15T10:09:28;17.63;;;4.77;;
78224;SDS011;67498;53.650;10.090;2024-02-15T10:11:55;18.50;;;4.97;;
78224;SDS011;67498;53.650;10.090;2024-02-15T10:14:21;17.13;;;4.57;;
78224;SDS011;67498;53.650;10.090;2024-02-15T10:16:47;16.65;;;5.45;;
78224;SDS011;67498;53.650;10.090;2024-02-15T10:19:12;14.13;;;5.43;;
78224;SDS011;67498;53.650;10.090;2024-02-15T10:21:40;17.67;;;5.13;;
78224;SDS011;67498;53.650;10.090;2024-02-15T10:24:06;16.47;;;4.77;;
78224;SDS011;67498;53.650;10.090;2024-02-15T10:26:32;16.13;;;5.13;;
78224;SDS011;67498;53.650;10.090;2024-02-15T10:29:06;18.57;;;4.87;;
78224;SDS011;67498;53.650;10.090;2024-02-15T10:31:36;19.10;;;3.72;;
78224;SDS011;67498;53.650;10.090;2024-02-15T10:34:04;13.85;;;4.95;;
78224;SDS011;67498;53.650;10.090;2024-02-15T10:36:30;18.20;;;5.10;;
78224;SDS011;67498;53.650;10.090;2024-02-15T10:39:14;15.23;;;4.78;;
78224;SDS011;67498;53.650;10.090;2024-02-15T10:41:49;21.93;;;4.93;;
78224;SDS011;67498;53.650;10.090;2024-02-15T10:44:20;23.88;;;5.72;;
78224;SDS011;67498;53.650;10.090;2024-02-15T10:46:46;14.88;;;5.15;;
78224;SDS011;67498;53.650;10.090;2024-02-15T10:49:17;18.80;;;6.43;;
78224;SDS011;67498;53.650;10.090;2024-02-15T10:51:56;17.40;;;5.65;;
78224;SDS011;67498;53.650;10.090;2024-02-15T10:57:21;18.80;;;6.03;;
78224;SDS011;67498;53.650;10.090;2024-02-15T10:59:56;15.52;;;5.45;;
78224;SDS011;67498;53.650;10.090;2024-02-15T11:02:26;16.85;;;6.30;;
78224;SDS011;67498;53.650;10.090;2024-02-15T11:05:01;18.08;;;6.13;;
78224;SDS011;67498;53.650;10.090;2024-02-15T11:07:29;18.67;;;6.27;;
78224;SDS011;67498;53.650;10.090;2024-02-15T11:09:56;23.40;;;5.85;;
78224;SDS011;67498;53.650;10.090;2024-02-15T11:12:22;22.75;;;6.90;;
78224;SDS011;67498;53.650;10.090;2024-02-15T11:14:51;20.57;;;7.20;;
78224;SDS011;67498;53.650;10.090;2024-02-15T11:17:44;22.50;;;6.75;;
78224;SDS011;67498;53.650;10.090;2024-02-15T11:22:57;19.10;;;6.53;;
78224;SDS011;67498;53.650;10.090;2024-02-15T11:30:48;20.25;;;6.85;;
78224;SDS011;67498;53.650;10.090;2024-02-15T11:33:23;20.20;;;8.07;;
78224;SDS011;67498;53.650;10.090;2024-02-15T11:36:06;29.13;;;9.73;;
78224;SDS011;67498;53.650;10.090;2024-02-15T11:38:33;28.92;;;7.30;;
78224;SDS011;67498;53.650;10.090;2024-02-15T11:41:00;21.80;;;7.00;;
78224;SDS011;67498;53.650;10.090;2024-02-15T11:46:23;26.55;;;7.10;;
78224;SDS011;67498;53.650;10.090;2024-02-15T11:48:50;25.77;;;8.02;;
78224;SDS011;67498;53.650;10.090;2024-02-15T11:56:30;29.08;;;8.15;;
78224;SDS011;67498;53.650;10.090;2024-02-15T11:59:02;18.45;;;7.38;;
78224;SDS011;67498;53.650;10.090;2024-02-15T12:01:30;23.60;;;7.13;;
78224;SDS011;67498;53.650;10.090;2024-02-15T12:04:15;18.75;;;7.50;;
78224;SDS011;67498;53.650;10.090;2024-02-15T12:06:59;20.10;;;7.57;;
78224;SDS011;67498;53.650;10.090;2024-02-15T12:09:43;23.38;;;7.65;;
78224;SDS011;67498;53.650;10.090;2024-02-15T12:12:27;26.67;;;7.20;;
78224;SDS011;67498;53.650;10.090;2024-02-15T12:15:11;22.35;;;8.32;;
78224;SDS011;67498;53.650;10.090;2024-02-15T12:17:55;21.50;;;7.70;;
78224;SDS011;67498;53.650;10.090;2024-02-15T12:20:39;18.80;;;7.37;;
78224;SDS011;67498;53.650;10.090;2024-02-15T12:23:04;20.27;;;8.03;;
78224;SDS011;67498;53.650;10.090;2024-02-15T12:25:31;20.33;;;6.93;;
78224;SDS011;67498;53.650;10.090;2024-02-15T12:27:58;20.75;;;7.57;;
78224;SDS011;67498;53.650;10.090;2024-02-15T12:30:24;22.05;;;8.00;;
78224;SDS011;67498;53.650;10.090;2024-02-15T12:33:08;22.50;;;7.47;;
78224;SDS011;67498;53.650;10.090;2024-02-15T12:35:37;19.42;;;7.55;;
78224;SDS011;67498;53.650;10.090;2024-02-15T12:38:03;21.77;;;7.73;;
78224;SDS011;67498;53.650;10.090;2024-02-15T12:40:34;19.95;;;6.43;;
78224;SDS011;67498;53.650;10.090;2024-02-15T12:43:01;22.17;;;7.57;;
78224;SDS011;67498;53.650;10.090;2024-02-15T12:45:30;21.60;;;7.38;;
78224;SDS011;67498;53.650;10.090;2024-02-15T12:47:56;25.55;;;7.75;;
78224;SDS011;67498;53.650;10.090;2024-02-15T12:50:28;20.88;;;6.82;;
78224;SDS011;67498;53.650;10.090;2024-02-15T12:52:54;22.67;;;7.18;;
78224;SDS011;67498;53.650;10.090;2024-02-15T12:57:59;23.80;;;7.53;;
78224;SDS011;67498;53.650;10.090;2024-02-15T13:00:28;20.35;;;6.72;;
78224;SDS011;67498;53.650;10.090;2024-02-15T13:02:57;23.25;;;7.15;;
78224;SDS011;67498;53.650;10.090;2024-02-15T13:05:24;16.20;;;5.75;;
78224;SDS011;67498;53.650;10.090;2024-02-15T13:07:51;16.13;;;5.93;;
78224;SDS011;67498;53.650;10.090;2024-02-15T13:10:18;16.83;;;6.20;;
78224;SDS011;67498;53.650;10.090;2024-02-15T13:12:44;18.38;;;6.35;;
78224;SDS011;67498;53.650;10.090;2024-02-15T13:15:10;14.52;;;5.90;;
78224;SDS011;67498;53.650;10.090;2024-02-15T13:17:39;17.47;;;5.73;;
78224;SDS011;67498;53.650;10.090;2024-02-15T13:20:08;15.73;;;5.80;;
78224;SDS011;67498;53.650;10.090;2024-02-15T13:22:36;13.98;;;5.45;;
78224;SDS011;67498;53.650;10.090;2024-02-15T13:25:03;18.80;;;5.75;;
78224;SDS011;67498;53.650;10.090;2024-02-15T13:27:29;14.70;;;5.37;;
78224;SDS011;67498;53.650;10.090;2024-02-15T13:29:54;13.13;;;4.60;;
78224;SDS011;67498;53.650;10.090;2024-02-15T13:32:20;14.53;;;4.90;;
78224;SDS011;67498;53.650;10.090;2024-02-15T13:34:47;15.75;;;5.13;;
78224;SDS011;67498;53.650;10.090;2024-02-15T13:37:17;14.13;;;4.85;;
78224;SDS011;67498;53.650;10.090;2024-02-15T13:39:43;15.70;;;5.13;;
78224;SDS011;67498;53.650;10.090;2024-02-15T13:42:10;14.32;;;4.85;;
78224;SDS011;67498;53.650;10.090;2024-02-15T13:44:36;10.53;;;3.87;;
78224;SDS011;67498;53.650;10.090;2024-02-15T13:47:02;10.00;;;4.18;;
78224;SDS011;67498;53.650;10.090;2024-02-15T13:49:27;15.87;;;4.53;;
78224;SDS011;67498;53.650;10.090;2024-02-15T13:51:55;11.68;;;3.83;;
78224;SDS011;67498;53.650;10.090;2024-02-15T13:54:20;12.23;;;4.77;;
78224;SDS011;67498;53.650;10.090;2024-02-15T13:56:47;11.63;;;4.00;;
78224;SDS011;67498;53.650;10.090;2024-02-15T13:59:12;9.20;;;3.87;;
78224;SDS011;67498;53.650;10.090;2024-02-15T14:01:38;9.77;;;3.97;;
78224;SDS011;67498;53.650;10.090;2024-02-15T14:04:10;10.05;;;4.65;;
78224;SDS011;67498;53.650;10.090;2024-02-15T14:06:35;10.50;;;3.43;;
78224;SDS011;67498;53.650;10.090;2024-02-15T14:09:02;13.07;;;4.25;;
78224;SDS011;67498;53.650;10.090;2024-02-15T14:11:28;11.88;;;4.05;;
78224;SDS011;67498;53.650;10.090;2024-02-15T14:13:53;12.33;;;4.30;;
78224;SDS011;67498;53.650;10.090;2024-02-15T14:16:23;11.90;;;3.90;;
78224;SDS011;67498;53.650;10.090;2024-02-15T14:18:48;11.50;;;4.20;;
78224;SDS011;67498;53.650;10.090;2024-02-15T14:21:15;10.77;;;3.87;;
78224;SDS011;67498;53.650;10.090;2024-02-15T14:23:41;13.80;;;4.63;;
78224;SDS011;67498;53.650;10.090;2024-02-15T14:26:07;11.43;;;4.40;;
78224;SDS011;67498;53.650;10.090;2024-02-15T14:28:32;12.80;;;4.57;;
78224;SDS011;67498;53.650;10.090;2024-02-15T14:30:59;10.85;;;4.25;;
78224;SDS011;67498;53.650;10.090;2024-02-15T14:33:43;13.57;;;4.38;;
78224;SDS011;67498;53.650;10.090;2024-02-15T14:36:09;13.67;;;4.80;;
78224;SDS011;67498;53.650;10.090;2024-02-15T14:38:34;14.30;;;4.30;;
78224;SDS011;67498;53.650;10.090;2024-02-15T14:40:59;16.17;;;4.60;;
78224;SDS011;67498;53.650;10.090;2024-02-15T14:43:27;14.07;;;4.13;;
78224;SDS011;67498;53.650;10.090;2024-02-15T14:45:53;9.10;;;4.40;;
78224;SDS011;67498;53.650;10.090;2024-02-15T14:48:19;11.77;;;3.92;;